sensor_id;sensor_type;location;lat;lon;timestamp;temperature;humidity
16505;HTU21D;8365;51.030;4.696;2023-06-14T00:00:25;21.78;51.40
16505;HTU21D;8365;51.030;4.696;2023-06-14T00:02:56;21.67;51.99
16505;HTU21D;8365;51.030;4.696;2023-06-14T00:05:31;21.62;52.14
16505;HTU21D;8365;51.030;4.696;2023-06-14T00:08:03;21.65;51.97
16505;HTU21D;8365;51.030;4.696;2023-06-14T00:10:37;21.70;51.71
16505;HTU21D;8365;51.030;4.696;2023-06-14T00:13:09;21.69;51.81
16505;HTU21D;8365;51.030;4.696;2023-06-14T00:15:42;21.66;52.69
16505;HTU21D;8365;51.030;4.696;2023-06-14T00:18:13;21.53;53.18
16505;HTU21D;8365;51.030;4.696;2023-06-14T00:20:43;21.48;53.60
16505;HTU21D;8365;51.030;4.696;2023-06-14T00:23:14;21.35;53.96
16505;HTU21D;8365;51.030;4.696;2023-06-14T00:25:48;21.33;54.02
16505;HTU21D;8365;51.030;4.696;2023-06-14T00:28:18;21.05;54.73
16505;HTU21D;8365;51.030;4.696;2023-06-14T00:30:51;21.02;55.18
16505;HTU21D;8365;51.030;4.696;2023-06-14T00:33:22;21.11;54.94
16505;HTU21D;8365;51.030;4.696;2023-06-14T00:35:52;21.17;54.54
16505;HTU21D;8365;51.030;4.696;2023-06-14T00:38:26;21.11;54.70
16505;HTU21D;8365;51.030;4.696;2023-06-14T00:40:56;21.18;54.35
16505;HTU21D;8365;51.030;4.696;2023-06-14T00:43:27;21.14;54.62
16505;HTU21D;8365;51.030;4.696;2023-06-14T00:45:57;21.14;54.87
16505;HTU21D;8365;51.030;4.696;2023-06-14T00:48:28;21.10;54.90
16505;HTU21D;8365;51.030;4.696;2023-06-14T00:51:00;21.15;54.20
16505;HTU21D;8365;51.030;4.696;2023-06-14T00:53:34;21.10;53.69
16505;HTU21D;8365;51.030;4.696;2023-06-14T00:56:06;21.15;53.20
16505;HTU21D;8365;51.030;4.696;2023-06-14T00:58:36;21.20;53.01
16505;HTU21D;8365;51.030;4.696;2023-06-14T01:01:07;21.14;53.02
16505;HTU21D;8365;51.030;4.696;2023-06-14T01:03:38;21.17;52.81
16505;HTU21D;8365;51.030;4.696;2023-06-14T01:06:18;21.15;52.70
16505;HTU21D;8365;51.030;4.696;2023-06-14T01:11:59;21.02;52.91
16505;HTU21D;8365;51.030;4.696;2023-06-14T01:14:31;21.08;52.60
16505;HTU21D;8365;51.030;4.696;2023-06-14T01:17:03;21.14;52.79
16505;HTU21D;8365;51.030;4.696;2023-06-14T01:19:35;21.04;52.77
16505;HTU21D;8365;51.030;4.696;2023-06-14T01:22:05;21.06;52.94
16505;HTU21D;8365;51.030;4.696;2023-06-14T01:24:36;21.16;52.69
16505;HTU21D;8365;51.030;4.696;2023-06-14T01:27:09;21.17;52.56
16505;HTU21D;8365;51.030;4.696;2023-06-14T01:29:41;21.13;52.82
16505;HTU21D;8365;51.030;4.696;2023-06-14T01:32:16;21.11;53.00
16505;HTU21D;8365;51.030;4.696;2023-06-14T01:34:48;21.10;52.98
16505;HTU21D;8365;51.030;4.696;2023-06-14T01:37:19;21.05;53.10
16505;HTU21D;8365;51.030;4.696;2023-06-14T01:39:50;21.03;53.10
16505;HTU21D;8365;51.030;4.696;2023-06-14T01:42:21;21.08;52.87
16505;HTU21D;8365;51.030;4.696;2023-06-14T01:44:53;21.06;52.66
16505;HTU21D;8365;51.030;4.696;2023-06-14T01:47:25;21.02;53.09
16505;HTU21D;8365;51.030;4.696;2023-06-14T01:49:55;21.03;52.68
16505;HTU21D;8365;51.030;4.696;2023-06-14T01:52:26;21.02;53.13
16505;HTU21D;8365;51.030;4.696;2023-06-14T01:54:56;20.98;53.13
16505;HTU21D;8365;51.030;4.696;2023-06-14T01:57:28;20.90;53.27
16505;HTU21D;8365;51.030;4.696;2023-06-14T01:59:58;20.80;53.59
16505;HTU21D;8365;51.030;4.696;2023-06-14T02:02:31;20.84;53.23
16505;HTU21D;8365;51.030;4.696;2023-06-14T02:05:01;20.74;53.60
16505;HTU21D;8365;51.030;4.696;2023-06-14T02:07:32;20.72;53.60
16505;HTU21D;8365;51.030;4.696;2023-06-14T02:10:04;20.68;53.94
16505;HTU21D;8365;51.030;4.696;2023-06-14T02:12:34;20.59;53.91
16505;HTU21D;8365;51.030;4.696;2023-06-14T02:15:05;20.61;53.88
16505;HTU21D;8365;51.030;4.696;2023-06-14T02:17:37;20.60;53.97
16505;HTU21D;8365;51.030;4.696;2023-06-14T02:20:07;20.60;54.12
16505;HTU21D;8365;51.030;4.696;2023-06-14T02:22:39;20.37;54.90
16505;HTU21D;8365;51.030;4.696;2023-06-14T02:25:10;20.48;54.38
16505;HTU21D;8365;51.030;4.696;2023-06-14T02:27:40;20.54;54.20
16505;HTU21D;8365;51.030;4.696;2023-06-14T02:30:11;20.54;54.13
16505;HTU21D;8365;51.030;4.696;2023-06-14T02:32:44;20.44;54.55
16505;HTU21D;8365;51.030;4.696;2023-06-14T02:35:15;20.54;54.07
16505;HTU21D;8365;51.030;4.696;2023-06-14T02:37:48;20.50;54.34
16505;HTU21D;8365;51.030;4.696;2023-06-14T02:40:19;20.48;54.47
16505;HTU21D;8365;51.030;4.696;2023-06-14T02:42:50;20.39;54.67
16505;HTU21D;8365;51.030;4.696;2023-06-14T02:45:20;20.42;54.77
16505;HTU21D;8365;51.030;4.696;2023-06-14T02:47:51;20.42;54.56
16505;HTU21D;8365;51.030;4.696;2023-06-14T02:50:21;20.36;54.75
16505;HTU21D;8365;51.030;4.696;2023-06-14T02:52:54;20.36;54.70
16505;HTU21D;8365;51.030;4.696;2023-06-14T02:55:26;20.32;55.13
16505;HTU21D;8365;51.030;4.696;2023-06-14T02:57:56;20.28;55.43
16505;HTU21D;8365;51.030;4.696;2023-06-14T03:00:29;20.26;55.43
16505;HTU21D;8365;51.030;4.696;2023-06-14T03:03:03;20.18;55.74
16505;HTU21D;8365;51.030;4.696;2023-06-14T03:05:34;20.12;56.10
16505;HTU21D;8365;51.030;4.696;2023-06-14T03:08:08;20.06;56.05
16505;HTU21D;8365;51.030;4.696;2023-06-14T03:10:38;20.06;55.79
16505;HTU21D;8365;51.030;4.696;2023-06-14T03:13:12;19.96;55.99
16505;HTU21D;8365;51.030;4.696;2023-06-14T03:15:42;19.99;55.64
16505;HTU21D;8365;51.030;4.696;2023-06-14T03:18:15;19.96;56.23
16505;HTU21D;8365;51.030;4.696;2023-06-14T03:20:46;19.92;56.30
16505;HTU21D;8365;51.030;4.696;2023-06-14T03:23:16;19.89;56.71
16505;HTU21D;8365;51.030;4.696;2023-06-14T03:25:48;19.85;56.84
16505;HTU21D;8365;51.030;4.696;2023-06-14T03:28:18;19.71;57.28
16505;HTU21D;8365;51.030;4.696;2023-06-14T03:30:49;19.75;57.34
16505;HTU21D;8365;51.030;4.696;2023-06-14T03:33:19;19.66;57.48
16505;HTU21D;8365;51.030;4.696;2023-06-14T03:35:51;19.62;57.40
16505;HTU21D;8365;51.030;4.696;2023-06-14T03:38:24;19.59;57.63
16505;HTU21D;8365;51.030;4.696;2023-06-14T03:40:55;19.62;57.51
16505;HTU21D;8365;51.030;4.696;2023-06-14T03:43:26;19.58;57.96
16505;HTU21D;8365;51.030;4.696;2023-06-14T03:45:57;19.56;57.94
16505;HTU21D;8365;51.030;4.696;2023-06-14T03:48:27;19.50;58.14
16505;HTU21D;8365;51.030;4.696;2023-06-14T03:50:58;19.48;58.19
16505;HTU21D;8365;51.030;4.696;2023-06-14T03:53:28;19.51;58.26
16505;HTU21D;8365;51.030;4.696;2023-06-14T03:55:59;19.44;58.31
16505;HTU21D;8365;51.030;4.696;2023-06-14T03:58:30;19.42;58.13
16505;HTU21D;8365;51.030;4.696;2023-06-14T04:01:00;19.41;58.67
16505;HTU21D;8365;51.030;4.696;2023-06-14T04:03:31;19.43;58.74
16505;HTU21D;8365;51.030;4.696;2023-06-14T04:06:01;19.46;58.93
16505;HTU21D;8365;51.030;4.696;2023-06-14T04:08:32;19.44;58.57
16505;HTU21D;8365;51.030;4.696;2023-06-14T04:11:02;19.48;58.61
16505;HTU21D;8365;51.030;4.696;2023-06-14T04:13:33;19.47;58.61
16505;HTU21D;8365;51.030;4.696;2023-06-14T04:16:05;19.42;58.93
16505;HTU21D;8365;51.030;4.696;2023-06-14T04:18:35;19.48;58.73
16505;HTU21D;8365;51.030;4.696;2023-06-14T04:21:06;19.52;59.05
16505;HTU21D;8365;51.030;4.696;2023-06-14T04:23:38;19.53;59.25
16505;HTU21D;8365;51.030;4.696;2023-06-14T04:26:09;19.55;59.44
16505;HTU21D;8365;51.030;4.696;2023-06-14T04:28:40;19.58;59.47
16505;HTU21D;8365;51.030;4.696;2023-06-14T04:31:11;19.59;59.55
16505;HTU21D;8365;51.030;4.696;2023-06-14T04:33:42;19.51;60.24
16505;HTU21D;8365;51.030;4.696;2023-06-14T04:36:16;19.63;59.98
16505;HTU21D;8365;51.030;4.696;2023-06-14T04:38:48;19.68;60.22
16505;HTU21D;8365;51.030;4.696;2023-06-14T04:41:21;19.72;59.86
16505;HTU21D;8365;51.030;4.696;2023-06-14T04:43:55;19.74;59.60
16505;HTU21D;8365;51.030;4.696;2023-06-14T04:46:30;19.83;59.28
16505;HTU21D;8365;51.030;4.696;2023-06-14T04:49:02;19.90;59.21
16505;HTU21D;8365;51.030;4.696;2023-06-14T04:51:32;19.92;59.48
16505;HTU21D;8365;51.030;4.696;2023-06-14T04:54:03;19.95;59.18
16505;HTU21D;8365;51.030;4.696;2023-06-14T04:56:35;20.05;58.85
16505;HTU21D;8365;51.030;4.696;2023-06-14T04:59:07;20.10;58.66
16505;HTU21D;8365;51.030;4.696;2023-06-14T05:01:38;20.17;58.62
16505;HTU21D;8365;51.030;4.696;2023-06-14T05:04:08;20.18;59.16
16505;HTU21D;8365;51.030;4.696;2023-06-14T05:06:42;20.19;59.13
16505;HTU21D;8365;51.030;4.696;2023-06-14T05:09:15;20.35;58.58
16505;HTU21D;8365;51.030;4.696;2023-06-14T05:11:47;20.42;58.29
16505;HTU21D;8365;51.030;4.696;2023-06-14T05:14:20;20.48;58.24
16505;HTU21D;8365;51.030;4.696;2023-06-14T05:16:52;20.62;57.79
16505;HTU21D;8365;51.030;4.696;2023-06-14T05:19:23;20.59;58.04
16505;HTU21D;8365;51.030;4.696;2023-06-14T05:21:54;20.63;57.96
16505;HTU21D;8365;51.030;4.696;2023-06-14T05:24:27;20.72;57.96
16505;HTU21D;8365;51.030;4.696;2023-06-14T05:27:00;20.80;57.96
16505;HTU21D;8365;51.030;4.696;2023-06-14T05:29:31;20.88;57.79
16505;HTU21D;8365;51.030;4.696;2023-06-14T05:32:03;20.85;57.85
16505;HTU21D;8365;51.030;4.696;2023-06-14T05:34:34;20.74;58.30
16505;HTU21D;8365;51.030;4.696;2023-06-14T05:37:04;20.98;57.47
16505;HTU21D;8365;51.030;4.696;2023-06-14T05:39:35;21.05;57.10
16505;HTU21D;8365;51.030;4.696;2023-06-14T05:42:06;21.03;56.77
16505;HTU21D;8365;51.030;4.696;2023-06-14T05:44:36;21.06;56.56
16505;HTU21D;8365;51.030;4.696;2023-06-14T05:47:07;21.20;56.41
16505;HTU21D;8365;51.030;4.696;2023-06-14T05:49:37;21.27;56.45
16505;HTU21D;8365;51.030;4.696;2023-06-14T05:52:10;21.28;56.69
16505;HTU21D;8365;51.030;4.696;2023-06-14T05:54:43;21.32;56.50
16505;HTU21D;8365;51.030;4.696;2023-06-14T05:57:13;21.47;56.58
16505;HTU21D;8365;51.030;4.696;2023-06-14T05:59:44;21.64;56.27
16505;HTU21D;8365;51.030;4.696;2023-06-14T06:02:14;21.82;57.02
16505;HTU21D;8365;51.030;4.696;2023-06-14T06:04:45;21.90;56.71
16505;HTU21D;8365;51.030;4.696;2023-06-14T06:07:15;21.94;55.83
16505;HTU21D;8365;51.030;4.696;2023-06-14T06:09:46;22.10;56.22
16505;HTU21D;8365;51.030;4.696;2023-06-14T06:12:16;22.11;55.59
16505;HTU21D;8365;51.030;4.696;2023-06-14T06:14:47;22.12;54.87
16505;HTU21D;8365;51.030;4.696;2023-06-14T06:17:17;22.20;55.52
16505;HTU21D;8365;51.030;4.696;2023-06-14T06:19:48;22.34;54.56
16505;HTU21D;8365;51.030;4.696;2023-06-14T06:22:19;22.48;53.91
16505;HTU21D;8365;51.030;4.696;2023-06-14T06:24:52;22.52;54.16
16505;HTU21D;8365;51.030;4.696;2023-06-14T06:27:22;22.62;54.46
16505;HTU21D;8365;51.030;4.696;2023-06-14T06:29:53;22.66;54.98
16505;HTU21D;8365;51.030;4.696;2023-06-14T06:32:23;22.76;54.55
16505;HTU21D;8365;51.030;4.696;2023-06-14T06:34:53;22.78;53.22
16505;HTU21D;8365;51.030;4.696;2023-06-14T06:37:24;22.77;52.47
16505;HTU21D;8365;51.030;4.696;2023-06-14T06:39:54;23.10;52.95
16505;HTU21D;8365;51.030;4.696;2023-06-14T06:42:25;23.22;52.43
16505;HTU21D;8365;51.030;4.696;2023-06-14T06:44:56;23.18;51.73
16505;HTU21D;8365;51.030;4.696;2023-06-14T06:47:26;23.21;52.38
16505;HTU21D;8365;51.030;4.696;2023-06-14T06:49:57;23.38;52.49
16505;HTU21D;8365;51.030;4.696;2023-06-14T06:52:27;23.40;51.58
16505;HTU21D;8365;51.030;4.696;2023-06-14T06:54:59;23.45;50.98
16505;HTU21D;8365;51.030;4.696;2023-06-14T06:57:29;23.61;49.85
16505;HTU21D;8365;51.030;4.696;2023-06-14T07:00:00;23.62;50.12
16505;HTU21D;8365;51.030;4.696;2023-06-14T07:02:30;23.60;49.32
16505;HTU21D;8365;51.030;4.696;2023-06-14T07:05:01;23.72;49.42
16505;HTU21D;8365;51.030;4.696;2023-06-14T07:07:34;23.83;49.18
16505;HTU21D;8365;51.030;4.696;2023-06-14T07:10:05;24.02;48.67
16505;HTU21D;8365;51.030;4.696;2023-06-14T07:12:36;24.16;48.91
16505;HTU21D;8365;51.030;4.696;2023-06-14T07:15:09;24.24;49.85
16505;HTU21D;8365;51.030;4.696;2023-06-14T07:17:40;24.38;48.69
16505;HTU21D;8365;51.030;4.696;2023-06-14T07:20:12;24.39;50.11
16505;HTU21D;8365;51.030;4.696;2023-06-14T07:22:46;24.45;48.50
16505;HTU21D;8365;51.030;4.696;2023-06-14T07:25:19;24.58;48.77
16505;HTU21D;8365;51.030;4.696;2023-06-14T07:27:52;24.73;49.11
16505;HTU21D;8365;51.030;4.696;2023-06-14T07:30:23;24.94;47.95
16505;HTU21D;8365;51.030;4.696;2023-06-14T07:32:56;25.09;47.61
16505;HTU21D;8365;51.030;4.696;2023-06-14T07:35:26;25.03;46.92
16505;HTU21D;8365;51.030;4.696;2023-06-14T07:37:59;25.04;47.84
16505;HTU21D;8365;51.030;4.696;2023-06-14T07:40:30;25.22;46.57
16505;HTU21D;8365;51.030;4.696;2023-06-14T07:43:00;25.31;47.28
16505;HTU21D;8365;51.030;4.696;2023-06-14T07:45:32;25.53;46.57
16505;HTU21D;8365;51.030;4.696;2023-06-14T07:48:03;25.58;45.44
16505;HTU21D;8365;51.030;4.696;2023-06-14T07:50:33;25.59;45.09
16505;HTU21D;8365;51.030;4.696;2023-06-14T07:53:04;25.78;45.09
16505;HTU21D;8365;51.030;4.696;2023-06-14T07:55:34;25.79;44.70
16505;HTU21D;8365;51.030;4.696;2023-06-14T07:58:09;25.88;45.40
16505;HTU21D;8365;51.030;4.696;2023-06-14T08:00:41;26.06;45.40
16505;HTU21D;8365;51.030;4.696;2023-06-14T08:03:11;26.07;45.38
16505;HTU21D;8365;51.030;4.696;2023-06-14T08:05:42;26.16;45.67
16505;HTU21D;8365;51.030;4.696;2023-06-14T08:08:15;26.23;45.31
16505;HTU21D;8365;51.030;4.696;2023-06-14T08:10:46;26.46;44.90
16505;HTU21D;8365;51.030;4.696;2023-06-14T08:13:16;26.51;44.25
16505;HTU21D;8365;51.030;4.696;2023-06-14T08:15:49;26.58;43.35
16505;HTU21D;8365;51.030;4.696;2023-06-14T08:18:19;26.54;42.43
16505;HTU21D;8365;51.030;4.696;2023-06-14T08:20:50;26.50;41.90
16505;HTU21D;8365;51.030;4.696;2023-06-14T08:23:22;26.47;43.12
16505;HTU21D;8365;51.030;4.696;2023-06-14T08:25:52;26.48;41.04
16505;HTU21D;8365;51.030;4.696;2023-06-14T08:28:24;26.65;42.67
16505;HTU21D;8365;51.030;4.696;2023-06-14T08:30:54;26.84;41.87
16505;HTU21D;8365;51.030;4.696;2023-06-14T08:33:25;26.95;41.37
16505;HTU21D;8365;51.030;4.696;2023-06-14T08:35:56;27.04;42.12
16505;HTU21D;8365;51.030;4.696;2023-06-14T08:38:26;27.04;40.54
16505;HTU21D;8365;51.030;4.696;2023-06-14T08:40:57;27.23;41.19
16505;HTU21D;8365;51.030;4.696;2023-06-14T08:43:28;27.25;41.33
16505;HTU21D;8365;51.030;4.696;2023-06-14T08:46:02;27.16;41.29
16505;HTU21D;8365;51.030;4.696;2023-06-14T08:48:33;27.39;41.08
16505;HTU21D;8365;51.030;4.696;2023-06-14T08:51:04;27.56;42.74
16505;HTU21D;8365;51.030;4.696;2023-06-14T08:53:36;27.75;40.81
16505;HTU21D;8365;51.030;4.696;2023-06-14T08:56:12;27.96;39.15
16505;HTU21D;8365;51.030;4.696;2023-06-14T08:58:44;27.89;38.30
16505;HTU21D;8365;51.030;4.696;2023-06-14T09:01:15;27.79;38.81
16505;HTU21D;8365;51.030;4.696;2023-06-14T09:03:48;27.88;38.34
16505;HTU21D;8365;51.030;4.696;2023-06-14T09:06:19;27.83;38.70
16505;HTU21D;8365;51.030;4.696;2023-06-14T09:08:54;27.93;37.78
16505;HTU21D;8365;51.030;4.696;2023-06-14T09:11:26;27.91;37.66
16505;HTU21D;8365;51.030;4.696;2023-06-14T09:13:57;28.00;37.96
16505;HTU21D;8365;51.030;4.696;2023-06-14T09:16:28;28.21;37.04
16505;HTU21D;8365;51.030;4.696;2023-06-14T09:18:58;28.25;36.71
16505;HTU21D;8365;51.030;4.696;2023-06-14T09:21:33;28.46;36.80
16505;HTU21D;8365;51.030;4.696;2023-06-14T09:24:04;28.67;36.53
16505;HTU21D;8365;51.030;4.696;2023-06-14T09:26:38;28.77;35.75
16505;HTU21D;8365;51.030;4.696;2023-06-14T09:29:09;28.80;36.34
16505;HTU21D;8365;51.030;4.696;2023-06-14T09:31:40;28.98;35.40
16505;HTU21D;8365;51.030;4.696;2023-06-14T09:34:10;29.18;34.82
16505;HTU21D;8365;51.030;4.696;2023-06-14T09:36:41;29.20;34.12
16505;HTU21D;8365;51.030;4.696;2023-06-14T09:39:16;29.36;33.94
16505;HTU21D;8365;51.030;4.696;2023-06-14T09:41:49;29.36;34.41
16505;HTU21D;8365;51.030;4.696;2023-06-14T09:44:20;29.50;33.15
16505;HTU21D;8365;51.030;4.696;2023-06-14T09:46:51;29.38;31.67
16505;HTU21D;8365;51.030;4.696;2023-06-14T09:49:23;29.43;32.38
16505;HTU21D;8365;51.030;4.696;2023-06-14T09:51:56;29.59;32.38
16505;HTU21D;8365;51.030;4.696;2023-06-14T09:54:28;29.81;32.48
16505;HTU21D;8365;51.030;4.696;2023-06-14T09:57:02;29.93;32.44
16505;HTU21D;8365;51.030;4.696;2023-06-14T09:59:33;30.18;32.51
16505;HTU21D;8365;51.030;4.696;2023-06-14T10:02:09;30.21;30.18
16505;HTU21D;8365;51.030;4.696;2023-06-14T10:04:46;30.08;31.32
16505;HTU21D;8365;51.030;4.696;2023-06-14T10:07:20;30.09;32.19
16505;HTU21D;8365;51.030;4.696;2023-06-14T10:09:52;30.44;32.50
16505;HTU21D;8365;51.030;4.696;2023-06-14T10:12:23;30.71;32.25
16505;HTU21D;8365;51.030;4.696;2023-06-14T10:14:55;31.18;31.43
16505;HTU21D;8365;51.030;4.696;2023-06-14T10:20:30;32.48;29.14
16505;HTU21D;8365;51.030;4.696;2023-06-14T10:23:13;32.89;26.07
16505;HTU21D;8365;51.030;4.696;2023-06-14T10:25:49;33.04;25.33
16505;HTU21D;8365;51.030;4.696;2023-06-14T10:28:21;33.86;23.39
16505;HTU21D;8365;51.030;4.696;2023-06-14T10:31:08;34.60;23.58
16505;HTU21D;8365;51.030;4.696;2023-06-14T10:33:50;33.76;25.89
16505;HTU21D;8365;51.030;4.696;2023-06-14T10:36:26;33.23;25.45
16505;HTU21D;8365;51.030;4.696;2023-06-14T10:38:58;34.09;25.23
16505;HTU21D;8365;51.030;4.696;2023-06-14T10:41:30;34.45;22.79
16505;HTU21D;8365;51.030;4.696;2023-06-14T10:46:55;35.14;22.99
16505;HTU21D;8365;51.030;4.696;2023-06-14T10:49:37;35.20;22.40
16505;HTU21D;8365;51.030;4.696;2023-06-14T10:52:14;34.37;23.07
16505;HTU21D;8365;51.030;4.696;2023-06-14T10:57:42;35.50;23.20
16505;HTU21D;8365;51.030;4.696;2023-06-14T11:00:14;36.33;21.08
16505;HTU21D;8365;51.030;4.696;2023-06-14T11:05:54;37.46;18.83
16505;HTU21D;8365;51.030;4.696;2023-06-14T11:11:15;37.87;19.68
16505;HTU21D;8365;51.030;4.696;2023-06-14T11:13:46;37.45;19.15
16505;HTU21D;8365;51.030;4.696;2023-06-14T11:16:17;38.93;17.45
16505;HTU21D;8365;51.030;4.696;2023-06-14T11:18:49;38.51;19.63
16505;HTU21D;8365;51.030;4.696;2023-06-14T11:21:19;38.92;18.77
16505;HTU21D;8365;51.030;4.696;2023-06-14T11:23:51;39.21;18.06
16505;HTU21D;8365;51.030;4.696;2023-06-14T11:26:30;39.95;17.43
16505;HTU21D;8365;51.030;4.696;2023-06-14T11:29:01;38.40;18.15
16505;HTU21D;8365;51.030;4.696;2023-06-14T11:31:31;38.66;19.08
16505;HTU21D;8365;51.030;4.696;2023-06-14T11:34:02;38.96;17.46
16505;HTU21D;8365;51.030;4.696;2023-06-14T11:36:36;39.47;17.80
16505;HTU21D;8365;51.030;4.696;2023-06-14T11:39:07;39.27;18.62
16505;HTU21D;8365;51.030;4.696;2023-06-14T11:41:45;38.63;17.96
16505;HTU21D;8365;51.030;4.696;2023-06-14T11:44:16;39.61;17.54
16505;HTU21D;8365;51.030;4.696;2023-06-14T11:46:46;39.71;17.91
16505;HTU21D;8365;51.030;4.696;2023-06-14T11:49:18;39.40;18.09
16505;HTU21D;8365;51.030;4.696;2023-06-14T11:51:48;39.08;17.56
16505;HTU21D;8365;51.030;4.696;2023-06-14T11:54:21;39.59;17.90
16505;HTU21D;8365;51.030;4.696;2023-06-14T11:56:52;40.16;16.91
16505;HTU21D;8365;51.030;4.696;2023-06-14T11:59:24;40.28;16.94
16505;HTU21D;8365;51.030;4.696;2023-06-14T12:01:55;40.52;15.36
16505;HTU21D;8365;51.030;4.696;2023-06-14T12:04:29;40.72;15.52
16505;HTU21D;8365;51.030;4.696;2023-06-14T12:07:09;41.07;15.05
16505;HTU21D;8365;51.030;4.696;2023-06-14T12:10:03;41.24;14.86
16505;HTU21D;8365;51.030;4.696;2023-06-14T12:12:37;41.76;14.27
16505;HTU21D;8365;51.030;4.696;2023-06-14T12:15:09;41.52;14.16
16505;HTU21D;8365;51.030;4.696;2023-06-14T12:17:42;39.78;15.29
16505;HTU21D;8365;51.030;4.696;2023-06-14T12:20:14;38.88;16.49
16505;HTU21D;8365;51.030;4.696;2023-06-14T12:22:52;38.62;16.18
16505;HTU21D;8365;51.030;4.696;2023-06-14T12:25:28;39.25;15.55
16505;HTU21D;8365;51.030;4.696;2023-06-14T12:28:06;40.88;15.13
16505;HTU21D;8365;51.030;4.696;2023-06-14T12:30:37;40.61;14.81
16505;HTU21D;8365;51.030;4.696;2023-06-14T12:33:07;40.27;15.45
16505;HTU21D;8365;51.030;4.696;2023-06-14T12:35:38;40.23;14.92
16505;HTU21D;8365;51.030;4.696;2023-06-14T12:38:08;40.33;14.55
16505;HTU21D;8365;51.030;4.696;2023-06-14T12:40:39;41.21;14.42
16505;HTU21D;8365;51.030;4.696;2023-06-14T12:43:09;41.07;14.09
16505;HTU21D;8365;51.030;4.696;2023-06-14T12:45:42;40.43;13.87
16505;HTU21D;8365;51.030;4.696;2023-06-14T12:48:13;40.62;15.15
16505;HTU21D;8365;51.030;4.696;2023-06-14T12:50:43;41.32;13.96
16505;HTU21D;8365;51.030;4.696;2023-06-14T12:53:14;42.34;12.86
16505;HTU21D;8365;51.030;4.696;2023-06-14T12:55:47;42.59;12.89
16505;HTU21D;8365;51.030;4.696;2023-06-14T12:58:17;41.36;12.65
16505;HTU21D;8365;51.030;4.696;2023-06-14T13:00:49;41.32;13.31
16505;HTU21D;8365;51.030;4.696;2023-06-14T13:03:20;41.30;13.30
16505;HTU21D;8365;51.030;4.696;2023-06-14T13:05:51;40.85;13.85
16505;HTU21D;8365;51.030;4.696;2023-06-14T13:08:21;40.99;14.13
16505;HTU21D;8365;51.030;4.696;2023-06-14T13:10:52;41.22;13.82
16505;HTU21D;8365;51.030;4.696;2023-06-14T13:13:25;40.70;13.61
16505;HTU21D;8365;51.030;4.696;2023-06-14T13:15:55;40.51;14.29
16505;HTU21D;8365;51.030;4.696;2023-06-14T13:18:26;40.61;14.22
16505;HTU21D;8365;51.030;4.696;2023-06-14T13:20:56;41.10;12.95
16505;HTU21D;8365;51.030;4.696;2023-06-14T13:23:27;40.93;13.64
16505;HTU21D;8365;51.030;4.696;2023-06-14T13:25:57;41.14;12.23
16505;HTU21D;8365;51.030;4.696;2023-06-14T13:28:28;41.42;12.67
16505;HTU21D;8365;51.030;4.696;2023-06-14T13:30:58;41.50;12.88
16505;HTU21D;8365;51.030;4.696;2023-06-14T13:33:29;41.73;13.67
16505;HTU21D;8365;51.030;4.696;2023-06-14T13:35:59;39.53;14.37
16505;HTU21D;8365;51.030;4.696;2023-06-14T13:38:30;41.03;13.68
16505;HTU21D;8365;51.030;4.696;2023-06-14T13:41:00;40.66;12.87
16505;HTU21D;8365;51.030;4.696;2023-06-14T13:43:33;41.93;12.09
16505;HTU21D;8365;51.030;4.696;2023-06-14T13:46:04;41.48;12.26
16505;HTU21D;8365;51.030;4.696;2023-06-14T13:48:34;41.07;13.42
16505;HTU21D;8365;51.030;4.696;2023-06-14T13:51:05;41.37;13.80
16505;HTU21D;8365;51.030;4.696;2023-06-14T13:53:37;41.32;13.27
16505;HTU21D;8365;51.030;4.696;2023-06-14T13:56:08;41.61;12.99
16505;HTU21D;8365;51.030;4.696;2023-06-14T13:58:38;41.92;12.84
16505;HTU21D;8365;51.030;4.696;2023-06-14T14:01:11;39.45;14.32
16505;HTU21D;8365;51.030;4.696;2023-06-14T14:03:42;39.29;15.80
16505;HTU21D;8365;51.030;4.696;2023-06-14T14:06:13;39.88;15.28
16505;HTU21D;8365;51.030;4.696;2023-06-14T14:08:44;40.23;15.05
16505;HTU21D;8365;51.030;4.696;2023-06-14T14:11:14;39.68;14.84
16505;HTU21D;8365;51.030;4.696;2023-06-14T14:13:46;40.26;15.14
16505;HTU21D;8365;51.030;4.696;2023-06-14T14:16:17;40.53;14.10
16505;HTU21D;8365;51.030;4.696;2023-06-14T14:18:47;40.60;14.55
16505;HTU21D;8365;51.030;4.696;2023-06-14T14:21:18;41.22;14.40
16505;HTU21D;8365;51.030;4.696;2023-06-14T14:23:48;40.00;14.92
16505;HTU21D;8365;51.030;4.696;2023-06-14T14:26:19;40.38;15.15
16505;HTU21D;8365;51.030;4.696;2023-06-14T14:28:51;40.27;14.84
16505;HTU21D;8365;51.030;4.696;2023-06-14T14:31:21;40.32;13.94
16505;HTU21D;8365;51.030;4.696;2023-06-14T14:33:52;40.91;14.18
16505;HTU21D;8365;51.030;4.696;2023-06-14T14:36:22;39.65;14.49
16505;HTU21D;8365;51.030;4.696;2023-06-14T14:38:53;39.38;15.62
16505;HTU21D;8365;51.030;4.696;2023-06-14T14:41:23;39.88;14.72
16505;HTU21D;8365;51.030;4.696;2023-06-14T14:43:54;40.25;15.40
16505;HTU21D;8365;51.030;4.696;2023-06-14T14:46:25;39.44;14.84
16505;HTU21D;8365;51.030;4.696;2023-06-14T14:48:55;39.24;15.03
16505;HTU21D;8365;51.030;4.696;2023-06-14T14:51:25;39.48;14.96
16505;HTU21D;8365;51.030;4.696;2023-06-14T14:53:58;39.79;15.29
16505;HTU21D;8365;51.030;4.696;2023-06-14T14:56:29;39.13;15.92
16505;HTU21D;8365;51.030;4.696;2023-06-14T14:58:59;39.42;14.97
16505;HTU21D;8365;51.030;4.696;2023-06-14T15:01:30;38.07;17.40
16505;HTU21D;8365;51.030;4.696;2023-06-14T15:04:00;38.49;16.54
16505;HTU21D;8365;51.030;4.696;2023-06-14T15:06:33;39.18;16.21
16505;HTU21D;8365;51.030;4.696;2023-06-14T15:09:06;39.78;14.91
16505;HTU21D;8365;51.030;4.696;2023-06-14T15:11:36;38.98;15.36
16505;HTU21D;8365;51.030;4.696;2023-06-14T15:14:07;39.24;16.98
16505;HTU21D;8365;51.030;4.696;2023-06-14T15:16:37;39.49;15.74
16505;HTU21D;8365;51.030;4.696;2023-06-14T15:19:08;39.39;15.42
16505;HTU21D;8365;51.030;4.696;2023-06-14T15:21:38;39.47;15.68
16505;HTU21D;8365;51.030;4.696;2023-06-14T15:24:09;38.64;15.62
16505;HTU21D;8365;51.030;4.696;2023-06-14T15:26:39;38.50;16.04
16505;HTU21D;8365;51.030;4.696;2023-06-14T15:29:10;39.36;16.47
16505;HTU21D;8365;51.030;4.696;2023-06-14T15:31:40;39.00;16.64
16505;HTU21D;8365;51.030;4.696;2023-06-14T15:34:11;39.25;16.18
16505;HTU21D;8365;51.030;4.696;2023-06-14T15:36:41;39.49;16.23
16505;HTU21D;8365;51.030;4.696;2023-06-14T15:39:12;39.49;16.29
16505;HTU21D;8365;51.030;4.696;2023-06-14T15:41:42;38.60;16.38
16505;HTU21D;8365;51.030;4.696;2023-06-14T15:44:15;38.63;16.66
16505;HTU21D;8365;51.030;4.696;2023-06-14T15:46:46;38.86;16.56
16505;HTU21D;8365;51.030;4.696;2023-06-14T15:49:16;38.22;17.70
16505;HTU21D;8365;51.030;4.696;2023-06-14T15:51:47;38.95;16.28
16505;HTU21D;8365;51.030;4.696;2023-06-14T15:54:17;39.15;16.42
16505;HTU21D;8365;51.030;4.696;2023-06-14T15:56:48;38.95;16.34
16505;HTU21D;8365;51.030;4.696;2023-06-14T15:59:18;37.01;17.18
16505;HTU21D;8365;51.030;4.696;2023-06-14T16:01:51;38.04;17.71
16505;HTU21D;8365;51.030;4.696;2023-06-14T16:04:21;37.56;17.61
16505;HTU21D;8365;51.030;4.696;2023-06-14T16:06:52;38.09;16.45
16505;HTU21D;8365;51.030;4.696;2023-06-14T16:09:22;38.29;16.60
16505;HTU21D;8365;51.030;4.696;2023-06-14T16:11:53;37.66;16.92
16505;HTU21D;8365;51.030;4.696;2023-06-14T16:14:25;37.31;16.32